Time;durP1;ratioP1;P1;durP2;ratioP2;P2;SDS_P1;SDS_P2;PMS_P1;PMS_P2;Temp;Humidity;BMP_temperature;BMP_pressure;BME280_temperature;BME280_humidity;BME280_pressure;Samples;Min_cycle;Max_cycle;Signal;HPM_P1;HPM_P2
2023/09/20 00:00:27;;;;;;;7.97;2.88;;;;;;;15.65;100.00;100879.00;5069760;28;20028;-75
2023/09/20 00:02:53;;;;;;;8.07;2.78;;;;;;;15.61;100.00;100881.84;5073479;28;20039;-75
2023/09/20 00:05:21;;;;;;;11.65;3.00;;;;;;;15.55;100.00;100882.97;5067720;28;20032;-74
2023/09/20 00:07:48;;;;;;;7.95;2.85;;;;;;;15.46;100.00;100872.84;5074917;28;20409;-74
2023/09/20 00:10:15;;;;;;;9.50;2.72;;;;;;;15.45;100.00;100882.50;5065915;28;20111;-74
2023/09/20 00:12:40;;;;;;;9.10;3.28;;;;;;;15.39;100.00;100882.75;5072065;28;20456;-74
2023/09/20 00:15:07;;;;;;;9.63;2.60;;;;;;;15.35;100.00;100875.09;5068524;28;20103;-74
2023/09/20 00:17:34;;;;;;;9.23;2.88;;;;;;;15.30;100.00;100869.16;5067443;28;20043;-74
2023/09/20 00:20:10;;;;;;;6.95;3.15;;;;;;;15.28;100.00;100881.53;5066626;28;20028;-74
2023/09/20 00:22:37;;;;;;;9.32;3.08;;;;;;;15.23;100.00;100879.09;5067310;28;20490;-74
2023/09/20 00:25:02;;;;;;;5.47;2.42;;;;;;;15.20;100.00;100871.31;5072951;28;20032;-74
2023/09/20 00:27:28;;;;;;;6.60;2.65;;;;;;;15.17;100.00;100877.59;5062801;28;20029;-74
2023/09/20 00:29:53;;;;;;;9.80;3.40;;;;;;;15.15;100.00;100871.53;5071824;28;20033;-74
2023/09/20 00:32:18;;;;;;;5.45;2.58;;;;;;;15.14;100.00;100880.34;5071734;28;20546;-74
2023/09/20 00:34:43;;;;;;;7.63;2.72;;;;;;;15.12;100.00;100871.66;5068837;28;20107;-74
2023/09/20 00:37:09;;;;;;;7.57;2.75;;;;;;;15.10;100.00;100868.22;5068551;28;20464;-75
2023/09/20 00:39:34;;;;;;;7.95;3.05;;;;;;;15.08;100.00;100870.09;5059500;28;20124;-75
2023/09/20 00:41:59;;;;;;;8.02;2.60;;;;;;;15.07;100.00;100865.72;5070092;28;20024;-74
2023/09/20 00:44:28;;;;;;;8.60;3.03;;;;;;;15.10;100.00;100870.84;5068010;28;20469;-74
2023/09/20 00:46:54;;;;;;;7.65;2.92;;;;;;;15.10;100.00;100862.97;5067819;28;20040;-75
2023/09/20 00:49:20;;;;;;;9.25;2.60;;;;;;;15.09;100.00;100858.66;5071230;28;20454;-75
2023/09/20 00:51:47;;;;;;;6.15;2.90;;;;;;;15.11;100.00;100863.88;5073244;28;20024;-75
2023/09/20 00:54:15;;;;;;;7.72;2.88;;;;;;;15.15;100.00;100858.41;5070908;28;20059;-75
2023/09/20 00:56:40;;;;;;;4.97;2.70;;;;;;;15.22;100.00;100856.38;5069354;28;20024;-75
2023/09/20 00:59:07;;;;;;;6.13;2.80;;;;;;;15.20;100.00;100864.34;5070191;28;20371;-75
2023/09/20 01:01:39;;;;;;;7.85;2.65;;;;;;;15.27;100.00;100864.03;5073231;28;20090;-74
2023/09/20 01:04:08;;;;;;;6.28;2.80;;;;;;;15.27;100.00;100864.94;5064792;28;20025;-74
2023/09/20 01:06:34;;;;;;;5.60;2.67;;;;;;;15.24;100.00;100872.94;5071860;28;20032;-74
2023/09/20 01:09:00;;;;;;;8.00;2.90;;;;;;;15.19;100.00;100870.47;5069738;28;20028;-74
2023/09/20 01:11:26;;;;;;;7.68;2.50;;;;;;;15.13;100.00;100870.72;5070658;28;20379;-74
2023/09/20 01:13:52;;;;;;;7.65;2.92;;;;;;;15.08;100.00;100866.63;5063121;28;20037;-74
2023/09/20 01:16:17;;;;;;;8.00;2.60;;;;;;;15.10;100.00;100862.97;5072500;28;20394;-74
2023/09/20 01:18:45;;;;;;;8.20;2.70;;;;;;;15.17;100.00;100853.97;5069043;28;20056;-75
2023/09/20 01:21:14;;;;;;;8.57;3.10;;;;;;;15.20;100.00;100847.69;5071290;28;20392;-75
2023/09/20 01:23:43;;;;;;;8.93;2.70;;;;;;;15.21;100.00;100855.53;5069076;28;20028;-75
2023/09/20 01:26:11;;;;;;;6.15;2.88;;;;;;;15.25;100.00;100860.66;5064672;28;20059;-75
2023/09/20 01:28:37;;;;;;;8.98;2.92;;;;;;;15.22;100.00;100845.88;5053858;28;20029;-75
2023/09/20 01:31:05;;;;;;;7.85;3.03;;;;;;;15.26;100.00;100849.22;5070433;28;20043;-75
2023/09/20 01:33:31;;;;;;;7.47;2.72;;;;;;;15.15;100.00;100847.91;5067625;28;20025;-74
2023/09/20 01:35:58;;;;;;;9.35;2.70;;;;;;;15.21;100.00;100845.03;5069548;28;20025;-74
2023/09/20 01:38:26;;;;;;;8.15;2.95;;;;;;;15.21;100.00;100841.53;5071171;28;20028;-75
2023/09/20 01:40:55;;;;;;;5.50;2.90;;;;;;;15.22;100.00;100840.63;5063835;28;20393;-74
2023/09/20 01:43:22;;;;;;;7.07;2.90;;;;;;;15.20;100.00;100840.69;5056971;28;20029;-74
2023/09/20 01:45:47;;;;;;;10.23;2.75;;;;;;;15.22;100.00;100851.97;5070918;28;20172;-74
2023/09/20 01:48:13;;;;;;;7.00;2.75;;;;;;;15.22;100.00;100843.25;5067880;28;20428;-74
2023/09/20 01:50:41;;;;;;;7.63;2.92;;;;;;;15.28;100.00;100840.34;5071631;28;20025;-74
2023/09/20 01:53:10;;;;;;;5.70;2.60;;;;;;;15.36;100.00;100842.66;5069575;28;20028;-74
2023/09/20 01:55:42;;;;;;;9.18;3.00;;;;;;;15.43;100.00;100836.19;5071609;28;20037;-75
2023/09/20 01:58:07;;;;;;;10.20;3.05;;;;;;;15.48;100.00;100831.59;5065634;28;20031;-75
2023/09/20 02:00:40;;;;;;;8.63;3.47;;;;;;;15.54;100.00;100825.25;5069558;28;20017;-74
2023/09/20 02:03:10;;;;;;;9.98;3.42;;;;;;;15.60;100.00;100831.06;5064876;28;20539;-74
2023/09/20 02:05:39;;;;;;;10.45;2.83;;;;;;;15.62;100.00;100812.59;5072626;28;20029;-74
2023/09/20 02:08:06;;;;;;;7.90;3.50;;;;;;;15.72;100.00;100823.59;5067397;28;20028;-75
2023/09/20 02:10:31;;;;;;;9.30;2.80;;;;;;;15.76;100.00;100809.38;5071853;28;20395;-75
2023/09/20 02:12:57;;;;;;;4.85;2.45;;;;;;;15.79;100.00;100803.97;5071097;28;20027;-74
2023/09/20 02:15:25;;;;;;;9.05;3.10;;;;;;;15.88;100.00;100819.34;5071179;28;20029;-75
2023/09/20 02:17:51;;;;;;;12.57;3.00;;;;;;;15.92;100.00;100815.63;5067497;28;20391;-75
2023/09/20 02:20:20;;;;;;;8.00;2.53;;;;;;;15.91;100.00;100812.16;5065310;28;20028;-75
2023/09/20 02:22:50;;;;;;;8.20;3.28;;;;;;;15.99;100.00;100809.19;5067743;28;20027;-74
2023/09/20 02:25:20;;;;;;;9.60;2.92;;;;;;;16.00;100.00;100807.41;5070316;28;20024;-75
2023/09/20 02:27:50;;;;;;;6.40;2.85;;;;;;;16.00;100.00;100800.38;5067776;28;20036;-74
2023/09/20 02:30:24;;;;;;;5.93;2.97;;;;;;;16.00;100.00;100792.47;5070331;28;20040;-75
2023/09/20 02:32:52;;;;;;;8.82;3.20;;;;;;;16.00;100.00;100808.25;5054192;28;20037;-75
2023/09/20 02:35:17;;;;;;;5.85;2.80;;;;;;;15.98;100.00;100806.63;5064989;28;20025;-74
2023/09/20 02:37:43;;;;;;;8.52;3.30;;;;;;;15.96;100.00;100801.44;5058104;28;20031;-75
2023/09/20 02:40:13;;;;;;;8.68;3.05;;;;;;;15.96;100.00;100798.81;5059127;28;20108;-75
2023/09/20 02:42:46;;;;;;;7.53;2.67;;;;;;;15.96;100.00;100796.19;5069309;28;20038;-74
2023/09/20 02:45:12;;;;;;;4.47;2.30;;;;;;;15.99;100.00;100797.78;5071480;28;20064;-75
2023/09/20 02:47:39;;;;;;;8.05;2.80;;;;;;;15.96;100.00;100798.81;5069560;28;20021;-75
2023/09/20 02:50:19;;;;;;;5.68;2.65;;;;;;;15.88;100.00;100790.41;5060178;28;20052;-75
2023/09/20 02:52:47;;;;;;;9.75;3.33;;;;;;;15.80;100.00;100780.28;5064151;28;20759;-75
2023/09/20 02:55:17;;;;;;;8.88;2.55;;;;;;;15.75;100.00;100786.66;5072392;28;20116;-75
2023/09/20 02:57:44;;;;;;;10.52;2.90;;;;;;;15.66;100.00;100780.91;5063472;28;20028;-75
2023/09/20 03:00:15;;;;;;;7.95;2.72;;;;;;;15.62;100.00;100774.03;5071605;28;20028;-75
2023/09/20 03:02:45;;;;;;;8.05;3.20;;;;;;;15.60;100.00;100775.03;5064246;28;20539;-75
2023/09/20 03:05:16;;;;;;;6.82;3.00;;;;;;;15.57;100.00;100769.94;5069300;28;20094;-75
2023/09/20 03:07:46;;;;;;;9.95;3.35;;;;;;;15.53;100.00;100771.84;5063431;28;20078;-75
2023/09/20 03:10:13;;;;;;;8.88;3.17;;;;;;;15.51;100.00;100771.03;5064217;28;20074;-75
2023/09/20 03:12:41;;;;;;;9.73;3.63;;;;;;;15.42;100.00;100758.31;5067041;28;20040;-75
2023/09/20 03:15:10;;;;;;;8.70;3.10;;;;;;;15.46;100.00;100765.13;5067085;28;20029;-75
2023/09/20 03:17:37;;;;;;;9.30;2.80;;;;;;;15.45;100.00;100756.41;5062305;28;20029;-74
2023/09/20 03:20:10;;;;;;;7.22;2.67;;;;;;;15.42;100.00;100758.31;5061644;28;20033;-74
2023/09/20 03:22:36;;;;;;;7.72;2.85;;;;;;;15.39;100.00;100753.19;5053568;28;20067;-74
2023/09/20 03:25:04;;;;;;;9.75;3.22;;;;;;;15.34;100.00;100744.69;5061164;28;20021;-74
2023/09/20 03:27:30;;;;;;;7.50;3.10;;;;;;;15.30;100.00;100753.59;5064810;28;20060;-74
2023/09/20 03:29:56;;;;;;;8.02;3.15;;;;;;;15.24;100.00;100749.50;5066029;28;20028;-74
2023/09/20 03:32:22;;;;;;;5.95;2.83;;;;;;;15.20;100.00;100753.16;5064523;28;20037;-74
2023/09/20 03:34:48;;;;;;;5.78;2.65;;;;;;;15.15;100.00;100750.75;5068484;28;20021;-74
2023/09/20 03:37:13;;;;;;;8.55;3.00;;;;;;;15.11;100.00;100759.69;5068709;28;20109;-74
2023/09/20 03:39:40;;;;;;;6.82;3.35;;;;;;;15.06;100.00;100761.63;5070247;28;20024;-74
2023/09/20 03:42:11;;;;;;;9.55;2.65;;;;;;;15.00;100.00;100761.91;5068029;28;20056;-74
2023/09/20 03:44:38;;;;;;;8.45;2.83;;;;;;;14.94;100.00;100765.66;5062959;28;20031;-74
2023/09/20 03:47:04;;;;;;;7.18;3.10;;;;;;;14.90;100.00;100757.97;5068059;28;20036;-75
2023/09/20 03:49:29;;;;;;;8.90;3.40;;;;;;;14.88;100.00;100751.94;5069721;28;20048;-74
2023/09/20 03:51:55;;;;;;;6.45;2.92;;;;;;;14.83;100.00;100748.66;5067685;28;20025;-74
2023/09/20 03:54:20;;;;;;;7.20;3.22;;;;;;;14.82;100.00;100757.47;5070670;28;20033;-74
2023/09/20 03:56:46;;;;;;;5.90;2.70;;;;;;;14.75;100.00;100757.72;5066587;28;20035;-74
2023/09/20 03:59:12;;;;;;;8.93;3.15;;;;;;;14.73;100.00;100756.06;5070334;28;20024;-74
2023/09/20 04:01:38;;;;;;;9.40;3.35;;;;;;;14.71;100.00;100761.38;5066021;28;20119;-74
2023/09/20 04:04:04;;;;;;;7.93;3.22;;;;;;;14.69;100.00;100754.50;5072380;28;20111;-74
2023/09/20 04:06:34;;;;;;;8.07;3.78;;;;;;;14.66;100.00;100752.84;5070552;28;20385;-74
2023/09/20 04:09:01;;;;;;;7.60;3.53;;;;;;;14.62;100.00;100745.19;5073870;28;20464;-74
2023/09/20 04:11:27;;;;;;;10.43;3.40;;;;;;;14.60;100.00;100750.47;5070093;28;20040;-74
2023/09/20 04:13:53;;;;;;;6.97;3.20;;;;;;;14.58;100.00;100760.16;5072981;28;20024;-74
2023/09/20 04:16:19;;;;;;;6.47;3.58;;;;;;;14.56;100.00;100754.16;5071082;28;20400;-74
2023/09/20 04:18:44;;;;;;;7.47;3.70;;;;;;;14.51;100.00;100737.72;5068291;28;20027;-74
2023/09/20 04:21:09;;;;;;;8.65;3.20;;;;;;;14.50;100.00;100736.00;5065853;28;20033;-74
2023/09/20 04:23:35;;;;;;;7.35;3.50;;;;;;;14.48;100.00;100735.19;5071517;28;20427;-74
2023/09/20 04:26:00;;;;;;;7.68;2.97;;;;;;;14.48;100.00;100738.69;5074647;28;20024;-74
2023/09/20 04:28:25;;;;;;;8.90;3.10;;;;;;;14.44;100.00;100728.38;5067500;28;20032;-74
2023/09/20 04:30:51;;;;;;;8.10;3.25;;;;;;;14.40;100.00;100724.19;5073528;28;20032;-75
2023/09/20 04:33:16;;;;;;;6.70;3.03;;;;;;;14.40;100.00;100719.78;5060502;28;20461;-75
2023/09/20 04:35:41;;;;;;;6.82;2.88;;;;;;;14.42;100.00;100722.34;5063966;28;20029;-74
2023/09/20 04:38:06;;;;;;;8.18;3.20;;;;;;;14.39;100.00;100710.22;5073347;28;20032;-75
2023/09/20 04:40:32;;;;;;;5.18;3.08;;;;;;;14.37;100.00;100716.44;5062273;28;20112;-74
2023/09/20 04:42:57;;;;;;;7.18;3.63;;;;;;;14.36;100.00;100714.75;5066845;28;20028;-74
2023/09/20 04:45:22;;;;;;;7.63;3.50;;;;;;;14.36;100.00;100702.50;5073976;28;20070;-74
2023/09/20 04:47:49;;;;;;;9.93;3.75;;;;;;;14.37;100.00;100709.44;5069199;28;20106;-75
2023/09/20 04:50:16;;;;;;;7.25;3.05;;;;;;;14.37;100.00;100714.66;5073802;28;20051;-74
2023/09/20 04:52:41;;;;;;;6.38;3.30;;;;;;;14.35;100.00;100713.03;5068168;28;20384;-75
2023/09/20 04:55:10;;;;;;;8.88;3.65;;;;;;;14.32;100.00;100718.38;5059514;28;20031;-75
2023/09/20 04:57:36;;;;;;;6.88;3.80;;;;;;;14.27;100.00;100711.56;5069360;28;20029;-74
2023/09/20 05:00:14;;;;;;;5.45;3.05;;;;;;;14.25;100.00;100715.16;5067300;28;20147;-75
2023/09/20 05:02:41;;;;;;;9.68;3.17;;;;;;;14.20;100.00;100704.88;5069528;28;20078;-74
2023/09/20 05:05:06;;;;;;;7.82;3.08;;;;;;;14.21;100.00;100709.19;5072442;28;20043;-74
2023/09/20 05:07:34;;;;;;;9.63;3.55;;;;;;;14.22;100.00;100703.06;5068940;28;20032;-75
2023/09/20 05:09:59;;;;;;;7.18;3.47;;;;;;;14.21;100.00;100706.56;5069282;28;20388;-74
2023/09/20 05:12:24;;;;;;;8.95;3.42;;;;;;;14.21;100.00;100703.94;5068075;28;20032;-74
2023/09/20 05:14:49;;;;;;;6.30;3.00;;;;;;;14.21;100.00;100703.94;5071591;28;20028;-75
2023/09/20 05:17:15;;;;;;;7.57;3.00;;;;;;;14.20;100.00;100711.91;5069163;28;20539;-74
2023/09/20 05:19:40;;;;;;;7.07;3.28;;;;;;;14.18;100.00;100695.34;5070743;28;20508;-75
2023/09/20 05:22:06;;;;;;;7.65;3.22;;;;;;;14.20;100.00;100706.66;5068593;28;20020;-75
2023/09/20 05:24:31;;;;;;;7.43;3.50;;;;;;;14.16;100.00;100708.53;5071215;28;20021;-74
2023/09/20 05:26:57;;;;;;;10.55;3.72;;;;;;;14.18;100.00;100711.94;5065472;28;20112;-74
2023/09/20 05:29:23;;;;;;;7.95;3.50;;;;;;;14.20;100.00;100717.13;5061705;28;20028;-74
2023/09/20 05:31:49;;;;;;;10.35;3.40;;;;;;;14.18;100.00;100698.84;5062680;28;20025;-74
2023/09/20 05:34:15;;;;;;;11.98;3.47;;;;;;;14.17;100.00;100691.91;5064017;28;20024;-75
2023/09/20 05:36:43;;;;;;;10.73;3.50;;;;;;;14.19;100.00;100695.31;5062164;28;20122;-75
2023/09/20 05:39:09;;;;;;;6.85;3.38;;;;;;;14.20;100.00;100694.38;5061130;28;20041;-74
2023/09/20 05:41:36;;;;;;;7.32;3.45;;;;;;;14.24;100.00;100695.13;5068400;28;20384;-74
2023/09/20 05:44:04;;;;;;;9.05;3.55;;;;;;;14.29;100.00;100699.25;5066031;28;20028;-74
2023/09/20 05:46:29;;;;;;;5.20;2.83;;;;;;;14.26;100.00;100688.91;5066386;28;20070;-75
2023/09/20 05:48:54;;;;;;;7.55;3.20;;;;;;;14.32;100.00;100689.53;5069891;28;20036;-75
2023/09/20 05:51:20;;;;;;;8.05;3.28;;;;;;;14.35;100.00;100689.41;5067712;28;20032;-75
2023/09/20 05:53:45;;;;;;;6.97;3.40;;;;;;;14.30;100.00;100679.13;5069562;28;20144;-74
2023/09/20 05:56:12;;;;;;;5.50;3.00;;;;;;;14.41;100.00;100697.88;5067130;28;20017;-75
2023/09/20 05:58:40;;;;;;;7.90;3.30;;;;;;;14.46;100.00;100697.72;5069921;28;20384;-74
2023/09/20 06:01:07;;;;;;;4.85;3.00;;;;;;;14.51;100.00;100695.75;5063230;28;20040;-74
2023/09/20 06:03:33;;;;;;;7.25;3.13;;;;;;;14.57;100.00;100700.75;5061894;28;20035;-74
2023/09/20 06:05:58;;;;;;;8.07;3.38;;;;;;;14.63;100.00;100705.75;5055125;28;20028;-75
2023/09/20 06:08:23;;;;;;;6.15;3.55;;;;;;;14.70;100.00;100711.59;5066243;28;20028;-75
2023/09/20 06:10:48;;;;;;;9.40;3.55;;;;;;;14.77;100.00;100701.69;5068436;28;20357;-74
2023/09/20 06:13:14;;;;;;;8.70;3.25;;;;;;;14.84;100.00;100692.63;5062225;28;20033;-74
2023/09/20 06:15:39;;;;;;;7.03;2.88;;;;;;;14.83;100.00;100690.91;5065413;28;20086;-75
2023/09/20 06:18:06;;;;;;;9.57;3.53;;;;;;;14.94;100.00;100696.53;5068848;28;20029;-75
2023/09/20 06:20:32;;;;;;;6.97;3.45;;;;;;;14.98;100.00;100687.63;5069836;28;20033;-75
2023/09/20 06:22:57;;;;;;;8.23;3.20;;;;;;;14.98;100.00;100680.59;5071171;28;20028;-75
2023/09/20 06:25:24;;;;;;;11.82;3.33;;;;;;;15.02;100.00;100690.97;5048687;28;20033;-75
2023/09/20 06:27:50;;;;;;;5.35;3.15;;;;;;;15.06;100.00;100690.75;5059810;28;20074;-74
2023/09/20 06:30:22;;;;;;;6.70;2.90;;;;;;;15.05;100.00;100682.97;5067646;28;20032;-74
2023/09/20 06:32:48;;;;;;;8.52;3.70;;;;;;;15.17;100.00;100690.28;5064587;28;20396;-74
2023/09/20 06:35:15;;;;;;;7.97;3.25;;;;;;;15.27;100.00;100701.22;5066161;28;20028;-74
2023/09/20 06:37:45;;;;;;;8.43;3.28;;;;;;;15.33;100.00;100701.78;5063494;28;20029;-74
2023/09/20 06:40:22;;;;;;;5.38;2.78;;;;;;;15.34;100.00;100694.78;5065630;28;20109;-74
2023/09/20 06:42:47;;;;;;;5.80;3.03;;;;;;;15.42;100.00;100690.88;5060407;28;20028;-75
2023/09/20 06:45:12;;;;;;;5.72;3.55;;;;;;;15.53;100.00;100687.75;5064332;28;20021;-75
2023/09/20 06:47:39;;;;;;;5.93;3.10;;;;;;;15.65;100.00;100687.16;5066818;28;20525;-76
2023/09/20 06:50:04;;;;;;;9.05;3.03;;;;;;;15.76;100.00;100688.47;5066788;28;20045;-74
2023/09/20 06:52:30;;;;;;;6.05;2.70;;;;;;;15.87;100.00;100687.03;5062280;28;20028;-74
2023/09/20 06:54:55;;;;;;;8.30;3.22;;;;;;;16.03;100.00;100688.94;5062943;28;20068;-75
2023/09/20 06:57:22;;;;;;;5.72;3.10;;;;;;;16.17;100.00;100693.53;5064730;28;20029;-75
2023/09/20 06:59:47;;;;;;;6.55;2.80;;;;;;;16.26;100.00;100693.94;5065176;28;20063;-75
2023/09/20 07:02:14;;;;;;;4.20;2.28;;;;;;;16.28;100.00;100684.16;5063067;28;20052;-74
2023/09/20 07:04:40;;;;;;;6.72;3.17;;;;;;;16.36;100.00;100687.28;5054820;28;20079;-74
2023/09/20 07:07:07;;;;;;;5.40;2.30;;;;;;;16.32;100.00;100682.25;5063533;28;20025;-74
2023/09/20 07:09:34;;;;;;;4.70;2.33;;;;;;;16.35;100.00;100685.59;5067043;28;20537;-74
2023/09/20 07:12:01;;;;;;;6.55;3.05;;;;;;;16.40;100.00;100687.97;5063188;28;20028;-75
2023/09/20 07:14:30;;;;;;;6.32;3.00;;;;;;;16.42;100.00;100680.00;5068989;28;20025;-74
2023/09/20 07:16:55;;;;;;;7.80;2.67;;;;;;;16.38;100.00;100666.13;5071267;28;20029;-74
2023/09/20 07:19:23;;;;;;;5.65;3.00;;;;;;;16.44;100.00;100670.25;5068241;28;20040;-75
2023/09/20 07:21:50;;;;;;;6.93;2.90;;;;;;;16.46;100.00;100671.03;5071041;28;20480;-75
2023/09/20 07:24:16;;;;;;;7.85;2.85;;;;;;;16.40;100.00;100653.75;5068624;28;20103;-75
2023/09/20 07:26:45;;;;;;;4.15;2.65;;;;;;;16.58;100.00;100679.16;5070610;28;20020;-75
2023/09/20 07:29:15;;;;;;;4.90;2.60;;;;;;;16.70;100.00;100682.06;5064384;28;20036;-74
2023/09/20 07:31:42;;;;;;;4.03;2.60;;;;;;;16.75;100.00;100674.84;5070729;28;20025;-74
2023/09/20 07:34:09;;;;;;;4.43;2.53;;;;;;;16.84;100.00;100677.00;5067668;28;20031;-74
2023/09/20 07:36:34;;;;;;;7.28;2.90;;;;;;;16.92;100.00;100676.59;5056362;28;20036;-75
2023/09/20 07:39:04;;;;;;;7.22;2.92;;;;;;;17.02;100.00;100683.06;5073472;28;20334;-75
2023/09/20 07:41:30;;;;;;;5.97;3.05;;;;;;;17.07;100.00;100681.06;5069658;28;20039;-75
2023/09/20 07:43:55;;;;;;;3.17;2.63;;;;;;;17.03;100.00;100675.06;5073111;28;20028;-75
2023/09/20 07:46:23;;;;;;;6.32;2.90;;;;;;;17.01;100.00;100682.22;5069971;28;20031;-75
2023/09/20 07:48:50;;;;;;;7.15;2.80;;;;;;;16.97;100.00;100683.31;5072284;28;20036;-75
2023/09/20 07:51:28;;;;;;;7.72;3.10;;;;;;;17.03;100.00;100685.59;5069893;28;20420;-75
2023/09/20 07:53:54;;;;;;;5.43;3.20;;;;;;;17.06;100.00;100682.81;5067190;28;20032;-74
2023/09/20 07:56:20;;;;;;;7.38;2.90;;;;;;;17.11;100.00;100682.59;5069496;28;20175;-75
2023/09/20 07:58:45;;;;;;;8.95;2.80;;;;;;;17.16;100.00;100685.81;5072151;28;20476;-75
2023/09/20 08:01:20;;;;;;;8.48;3.50;;;;;;;17.20;100.00;100675.97;5069291;28;20364;-75
2023/09/20 08:03:58;;;;;;;5.53;3.15;;;;;;;17.21;100.00;100681.16;5068368;28;20423;-75
2023/09/20 08:06:27;;;;;;;6.38;3.15;;;;;;;17.20;100.00;100670.69;5069388;28;20032;-75
2023/09/20 08:08:53;;;;;;;7.43;3.13;;;;;;;17.30;100.00;100688.56;5071617;28;20060;-75
2023/09/20 08:11:18;;;;;;;10.68;3.67;;;;;;;17.32;100.00;100685.84;5073279;28;20085;-75
2023/09/20 08:14:03;;;;;;;6.53;3.25;;;;;;;17.36;100.00;100683.91;5069995;28;20353;-75
2023/09/20 08:16:32;;;;;;;6.40;2.80;;;;;;;17.45;100.00;100686.88;5074032;28;20044;-75
2023/09/20 08:21:33;;;;;;;5.97;3.00;;;;;;;17.54;100.00;100675.84;5074100;28;20495;-75
2023/09/20 08:59:54;;;;;;;6.53;3.00;;;;;;;19.10;100.00;100680.94;5071150;28;20047;-75
2023/09/20 09:02:21;;;;;;;5.57;3.15;;;;;;;19.28;100.00;100687.72;5068320;28;20028;-75
2023/09/20 09:04:52;;;;;;;5.07;2.88;;;;;;;19.34;100.00;100694.41;5069919;28;20033;-76
2023/09/20 09:07:17;;;;;;;6.13;3.33;;;;;;;19.41;100.00;100696.56;5074206;28;20055;-75
2023/09/20 09:09:45;;;;;;;6.18;2.88;;;;;;;19.31;100.00;100689.31;5069542;28;20052;-76
2023/09/20 09:12:11;;;;;;;5.30;2.90;;;;;;;19.31;100.00;100695.44;5071677;28;20043;-75
2023/09/20 09:14:38;;;;;;;7.22;3.22;;;;;;;19.45;100.00;100701.66;5070645;28;20016;-75
2023/09/20 09:17:06;;;;;;;6.07;2.50;;;;;;;19.55;100.00;100684.28;5073091;28;20103;-76
2023/09/20 09:19:32;;;;;;;6.10;2.83;;;;;;;19.62;100.00;100685.59;5069659;28;20028;-75
2023/09/20 09:21:57;;;;;;;7.32;3.00;;;;;;;19.62;100.00;100694.38;5072937;28;20029;-75
2023/09/20 09:24:23;;;;;;;6.32;2.80;;;;;;;19.59;100.00;100683.16;5070012;28;20032;-75
2023/09/20 09:26:48;;;;;;;3.75;2.40;;;;;;;19.56;100.00;100675.41;5071738;28;20033;-75
2023/09/20 09:29:17;;;;;;;8.15;3.00;;;;;;;19.63;100.00;100685.53;5069560;28;20024;-75
2023/09/20 09:31:48;;;;;;;4.40;2.63;;;;;;;19.73;100.00;100680.50;5071849;28;20497;-75
2023/09/20 09:34:14;;;;;;;4.72;2.50;;;;;;;19.80;100.00;100684.44;5068748;28;20533;-76
2023/09/20 09:36:41;;;;;;;6.80;2.65;;;;;;;19.88;100.00;100684.81;5068074;28;20031;-76
2023/09/20 09:39:09;;;;;;;6.70;2.30;;;;;;;20.00;100.00;100687.59;5070839;28;20450;-75
2023/09/20 09:41:42;;;;;;;5.25;2.45;;;;;;;20.07;100.00;100683.59;5046736;28;20041;-75
2023/09/20 09:44:07;;;;;;;5.13;2.50;;;;;;;20.08;100.00;100669.44;5063328;28;20024;-75
2023/09/20 09:46:34;;;;;;;3.80;2.50;;;;;;;20.19;100.00;100674.00;5067183;28;20777;-76
2023/09/20 09:49:00;;;;;;;3.88;2.22;;;;;;;20.30;100.00;100674.97;5054825;28;20045;-76
2023/09/20 09:51:30;;;;;;;5.93;2.35;;;;;;;20.40;100.00;100667.25;5055866;28;20033;-75
2023/09/20 09:53:58;;;;;;;4.95;2.55;;;;;;;20.61;100.00;100672.94;5050100;28;20048;-75
2023/09/20 09:56:25;;;;;;;6.43;2.60;;;;;;;20.71;100.00;100652.81;5058443;28;20036;-75
2023/09/20 09:58:50;;;;;;;7.53;2.30;;;;;;;20.79;100.00;100653.13;5068127;28;20431;-76
2023/09/20 10:01:17;;;;;;;6.50;2.67;;;;;;;20.88;100.00;100659.59;5071623;28;20054;-75
2023/09/20 10:03:49;;;;;;;4.85;2.30;;;;;;;21.05;100.00;100651.31;5069322;28;20090;-76
2023/09/20 10:06:25;;;;;;;4.25;2.40;;;;;;;21.12;100.00;100656.19;5067716;28;20045;-75
2023/09/20 10:08:54;;;;;;;3.97;2.00;;;;;;;21.17;100.00;100649.59;5065451;28;20055;-75
2023/09/20 10:11:22;;;;;;;4.55;2.30;;;;;;;21.30;100.00;100659.34;5071651;28;20038;-76
2023/09/20 10:13:50;;;;;;;4.20;1.90;;;;;;;21.45;100.00;100658.25;5055844;28;20029;-75
2023/09/20 10:16:17;;;;;;;4.10;2.30;;;;;;;21.60;100.00;100635.09;5055861;28;20372;-76
2023/09/20 10:18:54;;;;;;;5.10;2.33;;;;;;;21.77;100.00;100657.75;5068748;28;20013;-75
2023/09/20 10:21:27;;;;;;;4.13;1.95;;;;;;;21.86;100.00;100647.31;5054845;28;20040;-76
2023/09/20 10:24:00;;;;;;;3.05;2.13;;;;;;;22.03;100.00;100642.56;5064758;28;20102;-76
2023/09/20 10:26:26;;;;;;;6.35;2.40;;;;;;;22.16;100.00;100641.53;5062836;28;20028;-77
2023/09/20 10:28:57;;;;;;;11.48;2.45;;;;;;;22.07;100.00;100639.56;5063076;28;20472;-77
2023/09/20 10:31:22;;;;;;;5.07;1.95;;;;;;;21.94;100.00;100644.06;5062446;28;20028;-77
2023/09/20 10:33:51;;;;;;;7.45;2.30;;;;;;;21.92;100.00;100635.41;5056423;28;20078;-77
2023/09/20 10:36:21;;;;;;;5.03;1.90;;;;;;;21.89;100.00;100632.97;5071687;28;20024;-77
2023/09/20 10:38:47;;;;;;;4.03;2.05;;;;;;;21.70;100.00;100630.81;5069401;28;20028;-77
2023/09/20 10:41:14;;;;;;;2.65;1.73;;;;;;;21.57;100.00;100620.25;5063524;28;20028;-77
2023/09/20 10:43:41;;;;;;;4.10;1.80;;;;;;;21.52;100.00;100622.41;5055872;28;20028;-77
2023/09/20 10:46:17;;;;;;;3.95;1.80;;;;;;;21.58;100.00;100616.66;5059796;28;20064;-76
2023/09/20 10:48:49;;;;;;;5.18;1.75;;;;;;;21.58;100.00;100611.34;5042493;28;20052;-76
2023/09/20 10:51:39;;;;;;;3.33;1.65;;;;;;;21.65;100.00;100625.03;5060435;28;20017;-77
2023/09/20 10:54:18;;;;;;;3.58;1.75;;;;;;;21.66;100.00;100618.75;5061126;28;20441;-77
2023/09/20 10:57:02;;;;;;;3.53;1.92;;;;;;;21.79;100.00;100613.38;5068072;28;20098;-76
2023/09/20 10:59:30;;;;;;;5.43;1.70;;;;;;;21.91;100.00;100612.47;5063562;28;20070;-78
2023/09/20 11:02:05;;;;;;;2.25;1.52;;;;;;;22.02;100.00;100609.00;5053640;28;20028;-77
2023/09/20 11:04:31;;;;;;;4.20;1.70;;;;;;;21.97;100.00;100604.91;5068091;28;20538;-77
2023/09/20 11:07:00;;;;;;;4.75;2.08;;;;;;;21.93;100.00;100599.91;5071285;28;20032;-77
2023/09/20 11:09:30;;;;;;;1.88;1.55;;;;;;;22.02;100.00;100599.25;5068732;28;20032;-77
2023/09/20 11:12:03;;;;;;;2.58;1.92;;;;;;;22.05;100.00;100595.50;5073341;28;20059;-77
2023/09/20 11:14:31;;;;;;;3.90;1.90;;;;;;;21.94;100.00;100607.78;5060077;28;20112;-77
2023/09/20 11:16:56;;;;;;;4.03;1.40;;;;;;;21.91;99.83;100593.91;5067921;28;20028;-77
2023/09/20 11:19:22;;;;;;;2.65;1.60;;;;;;;22.15;100.00;100596.50;5072308;28;20097;-77
2023/09/20 11:21:47;;;;;;;2.65;1.73;;;;;;;22.36;100.00;100609.97;5074576;28;20467;-77
2023/09/20 11:24:14;;;;;;;4.82;1.70;;;;;;;22.32;98.08;100592.59;5072064;28;20031;-77
2023/09/20 11:26:40;;;;;;;3.95;1.58;;;;;;;22.32;98.25;100587.28;5067725;28;20048;-77
2023/09/20 11:29:09;;;;;;;7.70;1.90;;;;;;;22.56;97.62;100595.16;5066672;28;20450;-77
2023/09/20 11:31:35;;;;;;;3.75;1.75;;;;;;;22.51;95.11;100608.81;5063698;28;20072;-76
2023/09/20 11:34:02;;;;;;;2.80;1.50;;;;;;;22.27;97.64;100597.41;5069238;28;20020;-76
2023/09/20 11:36:28;;;;;;;6.47;1.92;;;;;;;22.00;99.12;100595.00;5070097;28;20467;-76
2023/09/20 11:38:54;;;;;;;6.50;1.65;;;;;;;21.81;100.00;100608.78;5073080;28;20032;-77
2023/09/20 11:41:24;;;;;;;8.07;2.00;;;;;;;21.65;100.00;100601.16;5069415;28;20473;-77
2023/09/20 11:43:55;;;;;;;3.53;1.48;;;;;;;21.51;100.00;100607.44;5068233;28;20086;-77
2023/09/20 11:46:20;;;;;;;6.22;1.92;;;;;;;21.54;100.00;100596.59;5061674;28;20027;-76
2023/09/20 11:48:48;;;;;;;2.60;1.77;;;;;;;21.42;100.00;100589.56;5071359;28;20112;-76
2023/09/20 11:51:14;;;;;;;6.80;2.05;;;;;;;21.39;100.00;100600.41;5062560;28;20032;-76
2023/09/20 11:53:44;;;;;;;3.95;1.60;;;;;;;21.57;100.00;100592.88;5062419;28;20032;-76
2023/09/20 11:56:09;;;;;;;6.00;1.65;;;;;;;21.91;99.53;100596.56;5067026;28;20025;-76